sensor_id;sensor_type;location;lat;lon;timestamp;P1;durP1;ratioP1;P2;durP2;ratioP2
6205;SDS011;3136;48.788;9.772;2023-09-12T00:00:30;10.97;;;7.30;;
6205;SDS011;3136;48.788;9.772;2023-09-12T00:02:56;12.00;;;7.60;;
6205;SDS011;3136;48.788;9.772;2023-09-12T00:05:21;9.87;;;7.27;;
6205;SDS011;3136;48.788;9.772;2023-09-12T00:07:47;9.40;;;7.50;;
6205;SDS011;3136;48.788;9.772;2023-09-12T00:10:12;11.67;;;7.80;;
6205;SDS011;3136;48.788;9.772;2023-09-12T00:12:38;12.87;;;7.43;;
6205;SDS011;3136;48.788;9.772;2023-09-12T00:15:03;13.87;;;7.13;;
6205;SDS011;3136;48.788;9.772;2023-09-12T00:17:29;11.13;;;7.40;;
6205;SDS011;3136;48.788;9.772;2023-09-12T00:19:55;15.87;;;8.33;;
6205;SDS011;3136;48.788;9.772;2023-09-12T00:22:20;11.87;;;7.27;;
6205;SDS011;3136;48.788;9.772;2023-09-12T00:24:46;10.67;;;7.50;;
6205;SDS011;3136;48.788;9.772;2023-09-12T00:27:11;15.67;;;7.70;;
6205;SDS011;3136;48.788;9.772;2023-09-12T00:29:37;15.40;;;7.20;;
6205;SDS011;3136;48.788;9.772;2023-09-12T00:32:02;12.87;;;8.30;;
6205;SDS011;3136;48.788;9.772;2023-09-12T00:34:28;11.40;;;7.87;;
6205;SDS011;3136;48.788;9.772;2023-09-12T00:36:54;10.27;;;7.30;;
6205;SDS011;3136;48.788;9.772;2023-09-12T00:39:19;11.97;;;7.63;;
6205;SDS011;3136;48.788;9.772;2023-09-12T00:41:45;11.77;;;7.30;;
6205;SDS011;3136;48.788;9.772;2023-09-12T00:44:10;11.87;;;7.33;;
6205;SDS011;3136;48.788;9.772;2023-09-12T00:46:36;10.40;;;7.60;;
6205;SDS011;3136;48.788;9.772;2023-09-12T00:49:03;9.93;;;7.27;;
6205;SDS011;3136;48.788;9.772;2023-09-12T00:51:31;12.57;;;7.57;;
6205;SDS011;3136;48.788;9.772;2023-09-12T00:53:58;11.43;;;7.00;;
6205;SDS011;3136;48.788;9.772;2023-09-12T00:56:23;12.73;;;7.73;;
6205;SDS011;3136;48.788;9.772;2023-09-12T00:58:49;12.93;;;7.70;;
6205;SDS011;3136;48.788;9.772;2023-09-12T01:01:17;11.33;;;8.03;;
6205;SDS011;3136;48.788;9.772;2023-09-12T01:03:43;12.70;;;7.40;;
6205;SDS011;3136;48.788;9.772;2023-09-12T01:06:09;11.70;;;7.43;;
6205;SDS011;3136;48.788;9.772;2023-09-12T01:08:35;12.67;;;8.13;;
6205;SDS011;3136;48.788;9.772;2023-09-12T01:11:04;12.90;;;8.20;;
6205;SDS011;3136;48.788;9.772;2023-09-12T01:13:29;10.53;;;7.67;;
6205;SDS011;3136;48.788;9.772;2023-09-12T01:15:55;12.73;;;7.50;;
6205;SDS011;3136;48.788;9.772;2023-09-12T01:18:21;12.30;;;7.97;;
6205;SDS011;3136;48.788;9.772;2023-09-12T01:21:02;12.90;;;7.60;;
6205;SDS011;3136;48.788;9.772;2023-09-12T01:29:14;10.90;;;7.93;;
6205;SDS011;3136;48.788;9.772;2023-09-12T01:31:40;16.87;;;8.20;;
6205;SDS011;3136;48.788;9.772;2023-09-12T01:34:11;12.47;;;8.13;;
6205;SDS011;3136;48.788;9.772;2023-09-12T01:36:37;13.73;;;7.40;;
6205;SDS011;3136;48.788;9.772;2023-09-12T01:39:03;13.87;;;7.67;;
6205;SDS011;3136;48.788;9.772;2023-09-12T01:41:29;15.00;;;7.47;;
6205;SDS011;3136;48.788;9.772;2023-09-12T01:43:58;12.90;;;7.80;;
6205;SDS011;3136;48.788;9.772;2023-09-12T01:46:25;13.23;;;7.70;;
6205;SDS011;3136;48.788;9.772;2023-09-12T01:48:52;10.07;;;6.80;;
6205;SDS011;3136;48.788;9.772;2023-09-12T01:51:20;10.30;;;7.67;;
6205;SDS011;3136;48.788;9.772;2023-09-12T01:53:47;13.37;;;7.37;;
6205;SDS011;3136;48.788;9.772;2023-09-12T01:56:14;11.40;;;7.40;;
6205;SDS011;3136;48.788;9.772;2023-09-12T01:58:40;10.30;;;7.47;;
6205;SDS011;3136;48.788;9.772;2023-09-12T02:01:05;12.03;;;7.53;;
6205;SDS011;3136;48.788;9.772;2023-09-12T02:03:31;11.20;;;7.80;;
6205;SDS011;3136;48.788;9.772;2023-09-12T02:05:56;11.17;;;7.57;;
6205;SDS011;3136;48.788;9.772;2023-09-12T02:08:22;11.83;;;7.37;;
6205;SDS011;3136;48.788;9.772;2023-09-12T02:10:47;12.87;;;7.53;;
6205;SDS011;3136;48.788;9.772;2023-09-12T02:13:13;11.77;;;7.57;;
6205;SDS011;3136;48.788;9.772;2023-09-12T02:15:38;12.53;;;8.03;;
6205;SDS011;3136;48.788;9.772;2023-09-12T02:18:04;13.37;;;7.27;;
6205;SDS011;3136;48.788;9.772;2023-09-12T02:20:32;14.17;;;7.57;;
6205;SDS011;3136;48.788;9.772;2023-09-12T02:22:58;10.50;;;7.30;;
6205;SDS011;3136;48.788;9.772;2023-09-12T02:25:23;9.37;;;7.50;;
6205;SDS011;3136;48.788;9.772;2023-09-12T02:27:49;11.17;;;7.33;;
6205;SDS011;3136;48.788;9.772;2023-09-12T02:30:14;10.63;;;7.50;;
6205;SDS011;3136;48.788;9.772;2023-09-12T02:32:41;10.77;;;7.37;;
6205;SDS011;3136;48.788;9.772;2023-09-12T02:35:08;12.20;;;7.43;;
6205;SDS011;3136;48.788;9.772;2023-09-12T02:37:33;12.27;;;7.10;;
6205;SDS011;3136;48.788;9.772;2023-09-12T02:39:59;11.03;;;7.20;;
6205;SDS011;3136;48.788;9.772;2023-09-12T02:42:24;17.67;;;8.07;;
6205;SDS011;3136;48.788;9.772;2023-09-12T02:44:50;10.10;;;7.47;;
6205;SDS011;3136;48.788;9.772;2023-09-12T02:47:17;10.27;;;7.80;;
6205;SDS011;3136;48.788;9.772;2023-09-12T02:49:42;13.87;;;7.70;;
6205;SDS011;3136;48.788;9.772;2023-09-12T02:52:08;12.73;;;8.27;;
6205;SDS011;3136;48.788;9.772;2023-09-12T02:54:34;12.40;;;7.43;;
6205;SDS011;3136;48.788;9.772;2023-09-12T02:56:59;13.50;;;7.77;;
6205;SDS011;3136;48.788;9.772;2023-09-12T02:59:25;10.07;;;7.27;;
6205;SDS011;3136;48.788;9.772;2023-09-12T03:01:50;10.33;;;7.90;;
6205;SDS011;3136;48.788;9.772;2023-09-12T03:04:16;12.20;;;7.20;;
6205;SDS011;3136;48.788;9.772;2023-09-12T03:06:41;14.50;;;7.57;;
6205;SDS011;3136;48.788;9.772;2023-09-12T03:09:08;13.07;;;7.70;;
6205;SDS011;3136;48.788;9.772;2023-09-12T03:11:34;9.40;;;7.47;;
6205;SDS011;3136;48.788;9.772;2023-09-12T03:14:00;12.03;;;8.13;;
6205;SDS011;3136;48.788;9.772;2023-09-12T03:16:25;10.30;;;7.30;;
6205;SDS011;3136;48.788;9.772;2023-09-12T03:18:51;11.37;;;7.37;;
6205;SDS011;3136;48.788;9.772;2023-09-12T03:21:17;14.43;;;8.07;;
6205;SDS011;3136;48.788;9.772;2023-09-12T03:23:42;10.50;;;7.23;;
6205;SDS011;3136;48.788;9.772;2023-09-12T03:26:08;11.17;;;7.30;;
6205;SDS011;3136;48.788;9.772;2023-09-12T03:28:33;11.23;;;7.57;;
6205;SDS011;3136;48.788;9.772;2023-09-12T03:31:06;14.90;;;8.50;;
6205;SDS011;3136;48.788;9.772;2023-09-12T03:33:33;11.87;;;7.60;;
6205;SDS011;3136;48.788;9.772;2023-09-12T03:35:59;15.17;;;7.60;;
6205;SDS011;3136;48.788;9.772;2023-09-12T03:38:24;9.90;;;7.57;;
6205;SDS011;3136;48.788;9.772;2023-09-12T03:40:50;10.23;;;7.80;;
6205;SDS011;3136;48.788;9.772;2023-09-12T03:43:16;12.03;;;8.03;;
6205;SDS011;3136;48.788;9.772;2023-09-12T03:45:41;15.47;;;7.50;;
6205;SDS011;3136;48.788;9.772;2023-09-12T03:48:07;14.00;;;8.07;;
6205;SDS011;3136;48.788;9.772;2023-09-12T03:50:32;13.03;;;7.87;;
6205;SDS011;3136;48.788;9.772;2023-09-12T03:52:58;11.40;;;7.73;;
6205;SDS011;3136;48.788;9.772;2023-09-12T03:55:23;13.43;;;7.93;;
6205;SDS011;3136;48.788;9.772;2023-09-12T03:57:49;12.17;;;7.70;;
6205;SDS011;3136;48.788;9.772;2023-09-12T04:00:14;12.60;;;7.93;;
6205;SDS011;3136;48.788;9.772;2023-09-12T04:02:40;10.30;;;6.63;;
6205;SDS011;3136;48.788;9.772;2023-09-12T04:05:06;13.43;;;7.57;;
6205;SDS011;3136;48.788;9.772;2023-09-12T04:07:32;11.33;;;8.07;;
6205;SDS011;3136;48.788;9.772;2023-09-12T04:09:57;10.93;;;7.40;;
6205;SDS011;3136;48.788;9.772;2023-09-12T04:12:23;10.47;;;7.90;;
6205;SDS011;3136;48.788;9.772;2023-09-12T04:14:49;13.03;;;7.93;;
6205;SDS011;3136;48.788;9.772;2023-09-12T04:17:16;10.00;;;7.90;;
6205;SDS011;3136;48.788;9.772;2023-09-12T04:19:42;11.90;;;8.33;;
6205;SDS011;3136;48.788;9.772;2023-09-12T04:22:07;10.73;;;8.23;;
6205;SDS011;3136;48.788;9.772;2023-09-12T04:24:33;13.07;;;8.00;;
6205;SDS011;3136;48.788;9.772;2023-09-12T04:26:58;9.47;;;8.13;;
6205;SDS011;3136;48.788;9.772;2023-09-12T04:29:24;13.77;;;8.57;;
6205;SDS011;3136;48.788;9.772;2023-09-12T04:31:49;12.30;;;7.80;;
6205;SDS011;3136;48.788;9.772;2023-09-12T04:34:17;11.33;;;7.83;;
6205;SDS011;3136;48.788;9.772;2023-09-12T04:36:43;10.60;;;7.43;;
6205;SDS011;3136;48.788;9.772;2023-09-12T04:39:08;16.30;;;8.53;;
6205;SDS011;3136;48.788;9.772;2023-09-12T04:41:34;11.80;;;8.00;;
6205;SDS011;3136;48.788;9.772;2023-09-12T04:44:00;18.80;;;8.13;;
6205;SDS011;3136;48.788;9.772;2023-09-12T04:46:27;12.27;;;7.53;;
6205;SDS011;3136;48.788;9.772;2023-09-12T04:48:52;12.13;;;8.07;;
6205;SDS011;3136;48.788;9.772;2023-09-12T04:51:18;11.20;;;7.73;;
6205;SDS011;3136;48.788;9.772;2023-09-12T04:53:43;16.30;;;8.10;;
6205;SDS011;3136;48.788;9.772;2023-09-12T04:56:09;10.53;;;7.73;;
6205;SDS011;3136;48.788;9.772;2023-09-12T04:58:35;11.37;;;7.40;;
6205;SDS011;3136;48.788;9.772;2023-09-12T05:01:00;10.67;;;7.63;;
6205;SDS011;3136;48.788;9.772;2023-09-12T05:03:27;9.40;;;8.23;;
6205;SDS011;3136;48.788;9.772;2023-09-12T05:05:53;9.47;;;7.80;;
6205;SDS011;3136;48.788;9.772;2023-09-12T05:08:18;10.37;;;7.60;;
6205;SDS011;3136;48.788;9.772;2023-09-12T05:10:44;12.17;;;8.07;;
6205;SDS011;3136;48.788;9.772;2023-09-12T05:13:10;10.73;;;8.00;;
6205;SDS011;3136;48.788;9.772;2023-09-12T05:15:36;10.13;;;7.83;;
6205;SDS011;3136;48.788;9.772;2023-09-12T05:18:04;10.67;;;7.60;;
6205;SDS011;3136;48.788;9.772;2023-09-12T05:20:30;11.03;;;7.93;;
6205;SDS011;3136;48.788;9.772;2023-09-12T05:22:56;10.13;;;8.27;;
6205;SDS011;3136;48.788;9.772;2023-09-12T05:25:22;13.67;;;8.43;;
6205;SDS011;3136;48.788;9.772;2023-09-12T05:27:47;11.63;;;7.67;;
6205;SDS011;3136;48.788;9.772;2023-09-12T05:30:13;9.20;;;7.27;;
6205;SDS011;3136;48.788;9.772;2023-09-12T05:32:38;14.63;;;7.77;;
6205;SDS011;3136;48.788;9.772;2023-09-12T05:35:05;16.63;;;8.07;;
6205;SDS011;3136;48.788;9.772;2023-09-12T05:37:31;11.43;;;7.83;;
6205;SDS011;3136;48.788;9.772;2023-09-12T05:39:56;14.33;;;7.70;;
6205;SDS011;3136;48.788;9.772;2023-09-12T05:42:22;16.33;;;8.53;;
6205;SDS011;3136;48.788;9.772;2023-09-12T05:44:48;9.77;;;8.03;;
6205;SDS011;3136;48.788;9.772;2023-09-12T05:47:14;11.60;;;7.90;;
6205;SDS011;3136;48.788;9.772;2023-09-12T05:49:40;12.50;;;7.73;;
6205;SDS011;3136;48.788;9.772;2023-09-12T05:52:06;10.63;;;7.53;;
6205;SDS011;3136;48.788;9.772;2023-09-12T05:54:32;12.80;;;7.60;;
6205;SDS011;3136;48.788;9.772;2023-09-12T05:56:57;13.00;;;8.23;;
6205;SDS011;3136;48.788;9.772;2023-09-12T05:59:23;12.20;;;7.43;;
6205;SDS011;3136;48.788;9.772;2023-09-12T06:01:48;16.50;;;7.77;;
6205;SDS011;3136;48.788;9.772;2023-09-12T06:04:14;11.97;;;7.33;;
6205;SDS011;3136;48.788;9.772;2023-09-12T06:06:39;12.93;;;8.30;;
6205;SDS011;3136;48.788;9.772;2023-09-12T06:09:05;10.00;;;7.37;;
6205;SDS011;3136;48.788;9.772;2023-09-12T06:11:31;11.83;;;7.67;;
6205;SDS011;3136;48.788;9.772;2023-09-12T06:13:56;11.73;;;7.60;;
6205;SDS011;3136;48.788;9.772;2023-09-12T06:16:22;11.87;;;7.93;;
6205;SDS011;3136;48.788;9.772;2023-09-12T06:18:47;16.37;;;8.60;;
6205;SDS011;3136;48.788;9.772;2023-09-12T06:21:13;12.40;;;7.87;;
6205;SDS011;3136;48.788;9.772;2023-09-12T06:23:39;8.50;;;7.60;;
6205;SDS011;3136;48.788;9.772;2023-09-12T06:26:05;14.17;;;8.37;;
6205;SDS011;3136;48.788;9.772;2023-09-12T06:28:30;15.23;;;8.00;;
6205;SDS011;3136;48.788;9.772;2023-09-12T06:30:56;10.20;;;7.30;;
6205;SDS011;3136;48.788;9.772;2023-09-12T06:33:23;13.43;;;8.47;;
6205;SDS011;3136;48.788;9.772;2023-09-12T06:35:53;13.03;;;8.23;;
6205;SDS011;3136;48.788;9.772;2023-09-12T06:38:19;13.03;;;8.37;;
6205;SDS011;3136;48.788;9.772;2023-09-12T06:40:46;10.13;;;8.17;;
6205;SDS011;3136;48.788;9.772;2023-09-12T06:43:12;10.43;;;8.13;;
6205;SDS011;3136;48.788;9.772;2023-09-12T06:45:40;16.77;;;8.13;;
6205;SDS011;3136;48.788;9.772;2023-09-12T06:48:06;15.63;;;8.60;;
6205;SDS011;3136;48.788;9.772;2023-09-12T06:50:31;14.63;;;7.73;;
6205;SDS011;3136;48.788;9.772;2023-09-12T06:52:57;13.90;;;7.67;;
6205;SDS011;3136;48.788;9.772;2023-09-12T06:55:23;11.87;;;7.20;;
6205;SDS011;3136;48.788;9.772;2023-09-12T06:57:49;16.77;;;8.20;;
6205;SDS011;3136;48.788;9.772;2023-09-12T07:00:15;12.20;;;7.20;;
6205;SDS011;3136;48.788;9.772;2023-09-12T07:02:41;11.60;;;7.23;;
6205;SDS011;3136;48.788;9.772;2023-09-12T07:05:07;12.23;;;7.07;;
6205;SDS011;3136;48.788;9.772;2023-09-12T07:07:33;13.67;;;8.30;;
6205;SDS011;3136;48.788;9.772;2023-09-12T07:09:58;13.20;;;7.57;;
6205;SDS011;3136;48.788;9.772;2023-09-12T07:12:24;14.87;;;7.33;;
6205;SDS011;3136;48.788;9.772;2023-09-12T07:14:50;10.73;;;6.87;;
6205;SDS011;3136;48.788;9.772;2023-09-12T07:17:16;10.03;;;6.70;;
6205;SDS011;3136;48.788;9.772;2023-09-12T07:19:42;11.87;;;6.97;;
6205;SDS011;3136;48.788;9.772;2023-09-12T07:22:08;18.30;;;6.50;;
6205;SDS011;3136;48.788;9.772;2023-09-12T07:24:34;17.33;;;7.97;;
6205;SDS011;3136;48.788;9.772;2023-09-12T07:26:59;16.50;;;7.67;;
6205;SDS011;3136;48.788;9.772;2023-09-12T07:29:25;13.27;;;7.07;;
6205;SDS011;3136;48.788;9.772;2023-09-12T07:31:54;12.47;;;7.10;;
6205;SDS011;3136;48.788;9.772;2023-09-12T07:34:20;13.43;;;7.17;;
6205;SDS011;3136;48.788;9.772;2023-09-12T07:36:46;12.57;;;6.87;;
6205;SDS011;3136;48.788;9.772;2023-09-12T07:39:11;14.57;;;6.57;;
6205;SDS011;3136;48.788;9.772;2023-09-12T07:41:37;14.73;;;6.50;;
6205;SDS011;3136;48.788;9.772;2023-09-12T07:44:03;8.77;;;6.27;;
6205;SDS011;3136;48.788;9.772;2023-09-12T07:46:30;13.80;;;7.03;;
6205;SDS011;3136;48.788;9.772;2023-09-12T07:48:55;16.23;;;6.50;;
6205;SDS011;3136;48.788;9.772;2023-09-12T07:51:21;17.50;;;6.40;;
6205;SDS011;3136;48.788;9.772;2023-09-12T07:53:47;11.43;;;6.50;;
6205;SDS011;3136;48.788;9.772;2023-09-12T07:56:13;14.53;;;6.77;;
6205;SDS011;3136;48.788;9.772;2023-09-12T07:58:39;13.60;;;6.70;;
6205;SDS011;3136;48.788;9.772;2023-09-12T08:01:05;13.03;;;7.37;;
6205;SDS011;3136;48.788;9.772;2023-09-12T08:03:32;10.80;;;6.60;;
6205;SDS011;3136;48.788;9.772;2023-09-12T08:05:58;13.00;;;6.63;;
6205;SDS011;3136;48.788;9.772;2023-09-12T08:08:24;11.97;;;6.60;;
6205;SDS011;3136;48.788;9.772;2023-09-12T08:10:50;13.50;;;6.80;;
6205;SDS011;3136;48.788;9.772;2023-09-12T08:13:15;13.00;;;6.40;;
6205;SDS011;3136;48.788;9.772;2023-09-12T08:15:41;11.30;;;5.87;;
6205;SDS011;3136;48.788;9.772;2023-09-12T08:18:06;10.97;;;5.73;;
6205;SDS011;3136;48.788;9.772;2023-09-12T08:20:32;11.17;;;5.53;;
6205;SDS011;3136;48.788;9.772;2023-09-12T08:22:57;15.87;;;6.17;;
6205;SDS011;3136;48.788;9.772;2023-09-12T08:25:23;8.50;;;5.73;;
6205;SDS011;3136;48.788;9.772;2023-09-12T08:27:49;9.60;;;5.63;;
6205;SDS011;3136;48.788;9.772;2023-09-12T08:30:15;11.10;;;5.70;;
6205;SDS011;3136;48.788;9.772;2023-09-12T08:32:41;8.10;;;5.53;;
6205;SDS011;3136;48.788;9.772;2023-09-12T08:35:09;9.37;;;5.07;;
6205;SDS011;3136;48.788;9.772;2023-09-12T08:37:41;12.00;;;5.67;;
6205;SDS011;3136;48.788;9.772;2023-09-12T08:40:08;10.10;;;5.20;;
6205;SDS011;3136;48.788;9.772;2023-09-12T08:42:39;9.23;;;5.57;;
6205;SDS011;3136;48.788;9.772;2023-09-12T08:45:06;12.70;;;5.77;;
6205;SDS011;3136;48.788;9.772;2023-09-12T08:47:35;11.00;;;5.57;;
6205;SDS011;3136;48.788;9.772;2023-09-12T08:50:02;11.40;;;5.63;;
6205;SDS011;3136;48.788;9.772;2023-09-12T08:52:29;13.67;;;6.17;;
6205;SDS011;3136;48.788;9.772;2023-09-12T08:54:54;11.73;;;6.23;;
6205;SDS011;3136;48.788;9.772;2023-09-12T08:57:20;10.97;;;6.10;;
6205;SDS011;3136;48.788;9.772;2023-09-12T08:59:46;7.47;;;5.60;;
6205;SDS011;3136;48.788;9.772;2023-09-12T09:02:13;10.90;;;5.30;;
6205;SDS011;3136;48.788;9.772;2023-09-12T09:04:39;11.07;;;5.63;;
6205;SDS011;3136;48.788;9.772;2023-09-12T09:07:06;8.37;;;5.53;;
6205;SDS011;3136;48.788;9.772;2023-09-12T09:09:33;11.77;;;6.07;;
6205;SDS011;3136;48.788;9.772;2023-09-12T09:11:59;10.50;;;5.80;;
6205;SDS011;3136;48.788;9.772;2023-09-12T09:14:25;9.80;;;6.03;;
6205;SDS011;3136;48.788;9.772;2023-09-12T09:16:50;10.60;;;5.77;;
6205;SDS011;3136;48.788;9.772;2023-09-12T09:19:16;8.70;;;5.90;;
6205;SDS011;3136;48.788;9.772;2023-09-12T09:21:43;8.90;;;5.47;;
6205;SDS011;3136;48.788;9.772;2023-09-12T09:24:12;10.67;;;5.43;;
6205;SDS011;3136;48.788;9.772;2023-09-12T09:26:44;9.17;;;5.63;;
6205;SDS011;3136;48.788;9.772;2023-09-12T09:29:23;7.93;;;5.70;;
6205;SDS011;3136;48.788;9.772;2023-09-12T09:31:50;8.77;;;5.53;;
6205;SDS011;3136;48.788;9.772;2023-09-12T09:34:17;10.20;;;5.77;;
6205;SDS011;3136;48.788;9.772;2023-09-12T09:36:46;8.60;;;5.67;;
6205;SDS011;3136;48.788;9.772;2023-09-12T09:39:13;9.80;;;6.27;;
6205;SDS011;3136;48.788;9.772;2023-09-12T09:41:40;7.83;;;5.93;;
6205;SDS011;3136;48.788;9.772;2023-09-12T09:44:09;8.63;;;5.40;;
6205;SDS011;3136;48.788;9.772;2023-09-12T09:46:35;7.10;;;5.43;;
6205;SDS011;3136;48.788;9.772;2023-09-12T09:49:02;7.93;;;5.93;;
6205;SDS011;3136;48.788;9.772;2023-09-12T09:51:29;6.00;;;5.40;;
6205;SDS011;3136;48.788;9.772;2023-09-12T09:53:56;10.60;;;5.93;;
6205;SDS011;3136;48.788;9.772;2023-09-12T09:56:23;11.07;;;5.47;;
6205;SDS011;3136;48.788;9.772;2023-09-12T09:58:51;8.70;;;5.73;;
6205;SDS011;3136;48.788;9.772;2023-09-12T10:01:21;9.97;;;5.47;;
6205;SDS011;3136;48.788;9.772;2023-09-12T10:03:48;7.23;;;5.50;;
6205;SDS011;3136;48.788;9.772;2023-09-12T10:06:16;6.97;;;5.07;;
6205;SDS011;3136;48.788;9.772;2023-09-12T10:08:43;14.53;;;5.93;;
6205;SDS011;3136;48.788;9.772;2023-09-12T10:11:12;8.00;;;5.00;;
6205;SDS011;3136;48.788;9.772;2023-09-12T10:13:41;9.70;;;5.80;;
6205;SDS011;3136;48.788;9.772;2023-09-12T10:16:15;7.15;;;5.35;;
6205;SDS011;3136;48.788;9.772;2023-09-12T10:18:45;7.28;;;5.35;;
6205;SDS011;3136;48.788;9.772;2023-09-12T10:21:21;6.95;;;5.43;;
6205;SDS011;3136;48.788;9.772;2023-09-12T10:23:59;7.63;;;4.93;;
6205;SDS011;3136;48.788;9.772;2023-09-12T10:26:27;6.68;;;4.97;;
6205;SDS011;3136;48.788;9.772;2023-09-12T10:28:55;6.63;;;4.70;;
6205;SDS011;3136;48.788;9.772;2023-09-12T10:31:22;9.80;;;5.15;;
6205;SDS011;3136;48.788;9.772;2023-09-12T10:33:50;7.93;;;5.07;;
6205;SDS011;3136;48.788;9.772;2023-09-12T10:36:17;9.18;;;4.80;;
6205;SDS011;3136;48.788;9.772;2023-09-12T10:38:44;7.28;;;5.40;;
6205;SDS011;3136;48.788;9.772;2023-09-12T10:41:11;5.40;;;4.90;;
6205;SDS011;3136;48.788;9.772;2023-09-12T10:43:41;5.85;;;5.22;;
6205;SDS011;3136;48.788;9.772;2023-09-12T10:46:11;9.55;;;5.53;;
6205;SDS011;3136;48.788;9.772;2023-09-12T10:48:37;5.10;;;4.63;;
6205;SDS011;3136;48.788;9.772;2023-09-12T10:51:05;8.43;;;5.07;;
6205;SDS011;3136;48.788;9.772;2023-09-12T10:53:32;10.57;;;4.90;;
6205;SDS011;3136;48.788;9.772;2023-09-12T10:56:14;5.63;;;4.78;;
6205;SDS011;3136;48.788;9.772;2023-09-12T11:01:43;7.32;;;5.32;;
6205;SDS011;3136;48.788;9.772;2023-09-12T11:06:45;8.32;;;4.65;;
6205;SDS011;3136;48.788;9.772;2023-09-12T11:11:43;5.40;;;4.90;;
6205;SDS011;3136;48.788;9.772;2023-09-12T11:14:13;4.85;;;4.45;;
6205;SDS011;3136;48.788;9.772;2023-09-12T11:17:19;5.25;;;4.75;;
6205;SDS011;3136;48.788;9.772;2023-09-12T11:19:42;7.85;;;4.68;;
6205;SDS011;3136;48.788;9.772;2023-09-12T11:22:27;6.20;;;4.75;;
6205;SDS011;3136;48.788;9.772;2023-09-12T11:24:56;6.65;;;4.60;;
6205;SDS011;3136;48.788;9.772;2023-09-12T11:27:30;6.60;;;4.60;;
6205;SDS011;3136;48.788;9.772;2023-09-12T11:30:04;8.35;;;4.55;;
6205;SDS011;3136;48.788;9.772;2023-09-12T11:32:31;5.10;;;4.13;;
6205;SDS011;3136;48.788;9.772;2023-09-12T11:34:57;7.35;;;4.25;;
6205;SDS011;3136;48.788;9.772;2023-09-12T11:37:25;5.30;;;4.20;;
6205;SDS011;3136;48.788;9.772;2023-09-12T11:39:52;9.07;;;4.28;;
6205;SDS011;3136;48.788;9.772;2023-09-12T11:42:19;7.70;;;4.60;;
6205;SDS011;3136;48.788;9.772;2023-09-12T11:44:48;6.97;;;4.70;;
6205;SDS011;3136;48.788;9.772;2023-09-12T11:47:15;5.20;;;4.40;;
6205;SDS011;3136;48.788;9.772;2023-09-12T11:49:41;7.22;;;4.70;;
6205;SDS011;3136;48.788;9.772;2023-09-12T11:52:13;8.00;;;5.15;;
6205;SDS011;3136;48.788;9.772;2023-09-12T11:54:41;6.13;;;4.45;;
6205;SDS011;3136;48.788;9.772;2023-09-12T11:57:08;4.95;;;4.32;;
6205;SDS011;3136;48.788;9.772;2023-09-12T11:59:37;7.18;;;4.40;;
6205;SDS011;3136;48.788;9.772;2023-09-12T12:02:06;6.40;;;4.63;;
6205;SDS011;3136;48.788;9.772;2023-09-12T12:04:35;8.88;;;4.57;;
6205;SDS011;3136;48.788;9.772;2023-09-12T12:07:02;5.47;;;4.30;;
6205;SDS011;3136;48.788;9.772;2023-09-12T12:09:31;5.75;;;4.20;;
6205;SDS011;3136;48.788;9.772;2023-09-12T12:12:04;6.47;;;4.40;;
6205;SDS011;3136;48.788;9.772;2023-09-12T12:14:38;7.38;;;4.60;;
6205;SDS011;3136;48.788;9.772;2023-09-12T12:17:05;6.57;;;4.65;;
6205;SDS011;3136;48.788;9.772;2023-09-12T12:19:33;6.22;;;4.43;;
6205;SDS011;3136;48.788;9.772;2023-09-12T12:21:58;6.40;;;4.43;;
6205;SDS011;3136;48.788;9.772;2023-09-12T12:24:24;5.35;;;4.47;;
6205;SDS011;3136;48.788;9.772;2023-09-12T12:26:50;7.47;;;4.80;;
6205;SDS011;3136;48.788;9.772;2023-09-12T12:29:18;4.70;;;4.20;;
6205;SDS011;3136;48.788;9.772;2023-09-12T12:31:43;5.10;;;4.13;;
6205;SDS011;3136;48.788;9.772;2023-09-12T12:34:09;5.63;;;4.60;;
6205;SDS011;3136;48.788;9.772;2023-09-12T12:36:40;4.63;;;3.90;;
6205;SDS011;3136;48.788;9.772;2023-09-12T12:39:07;6.05;;;3.70;;
6205;SDS011;3136;48.788;9.772;2023-09-12T12:41:36;5.35;;;4.15;;
6205;SDS011;3136;48.788;9.772;2023-09-12T12:44:02;8.95;;;4.47;;
6205;SDS011;3136;48.788;9.772;2023-09-12T12:46:29;7.95;;;4.22;;
6205;SDS011;3136;48.788;9.772;2023-09-12T12:48:55;5.32;;;4.40;;
6205;SDS011;3136;48.788;9.772;2023-09-12T12:51:22;5.47;;;4.28;;
6205;SDS011;3136;48.788;9.772;2023-09-12T12:53:52;6.85;;;4.45;;
6205;SDS011;3136;48.788;9.772;2023-09-12T12:56:20;5.35;;;4.15;;
6205;SDS011;3136;48.788;9.772;2023-09-12T12:58:52;7.45;;;4.63;;
6205;SDS011;3136;48.788;9.772;2023-09-12T13:01:27;5.45;;;4.03;;
6205;SDS011;3136;48.788;9.772;2023-09-12T13:03:53;6.95;;;4.03;;
6205;SDS011;3136;48.788;9.772;2023-09-12T13:06:21;6.72;;;4.25;;
6205;SDS011;3136;48.788;9.772;2023-09-12T13:08:47;8.00;;;5.07;;
6205;SDS011;3136;48.788;9.772;2023-09-12T13:11:14;6.43;;;4.10;;
6205;SDS011;3136;48.788;9.772;2023-09-12T13:13:40;6.82;;;4.55;;
6205;SDS011;3136;48.788;9.772;2023-09-12T13:16:12;7.00;;;4.32;;
6205;SDS011;3136;48.788;9.772;2023-09-12T13:18:38;6.45;;;4.22;;
6205;SDS011;3136;48.788;9.772;2023-09-12T13:21:05;7.90;;;4.38;;
6205;SDS011;3136;48.788;9.772;2023-09-12T13:23:33;6.47;;;4.22;;
6205;SDS011;3136;48.788;9.772;2023-09-12T13:25:59;6.63;;;4.20;;
6205;SDS011;3136;48.788;9.772;2023-09-12T13:28:25;6.93;;;4.40;;
6205;SDS011;3136;48.788;9.772;2023-09-12T13:30:51;7.07;;;4.93;;
6205;SDS011;3136;48.788;9.772;2023-09-12T13:33:17;7.40;;;4.38;;
6205;SDS011;3136;48.788;9.772;2023-09-12T13:35:43;8.57;;;4.28;;
6205;SDS011;3136;48.788;9.772;2023-09-12T13:38:08;10.05;;;4.45;;
6205;SDS011;3136;48.788;9.772;2023-09-12T13:40:37;6.32;;;4.20;;
6205;SDS011;3136;48.788;9.772;2023-09-12T13:43:07;4.35;;;3.95;;
6205;SDS011;3136;48.788;9.772;2023-09-12T13:45:33;7.40;;;4.03;;
6205;SDS011;3136;48.788;9.772;2023-09-12T13:47:59;5.72;;;4.50;;
6205;SDS011;3136;48.788;9.772;2023-09-12T13:50:26;5.57;;;4.32;;
6205;SDS011;3136;48.788;9.772;2023-09-12T13:52:55;6.43;;;4.90;;
6205;SDS011;3136;48.788;9.772;2023-09-12T13:55:21;4.85;;;4.35;;
6205;SDS011;3136;48.788;9.772;2023-09-12T13:57:47;5.78;;;4.70;;
6205;SDS011;3136;48.788;9.772;2023-09-12T14:00:13;5.63;;;4.32;;
6205;SDS011;3136;48.788;9.772;2023-09-12T14:02:38;5.85;;;4.35;;
6205;SDS011;3136;48.788;9.772;2023-09-12T14:05:04;7.03;;;4.40;;
6205;SDS011;3136;48.788;9.772;2023-09-12T14:07:30;7.18;;;4.22;;
6205;SDS011;3136;48.788;9.772;2023-09-12T14:09:55;5.88;;;3.92;;
6205;SDS011;3136;48.788;9.772;2023-09-12T14:12:22;5.38;;;4.20;;
6205;SDS011;3136;48.788;9.772;2023-09-12T14:14:48;6.68;;;4.30;;
6205;SDS011;3136;48.788;9.772;2023-09-12T14:17:14;7.00;;;4.40;;
6205;SDS011;3136;48.788;9.772;2023-09-12T14:19:40;4.47;;;4.10;;
6205;SDS011;3136;48.788;9.772;2023-09-12T14:22:06;6.72;;;4.85;;
6205;SDS011;3136;48.788;9.772;2023-09-12T14:24:31;5.60;;;3.97;;
6205;SDS011;3136;48.788;9.772;2023-09-12T14:26:57;4.93;;;4.03;;
6205;SDS011;3136;48.788;9.772;2023-09-12T14:29:22;6.93;;;4.38;;
6205;SDS011;3136;48.788;9.772;2023-09-12T14:31:51;9.70;;;5.30;;
6205;SDS011;3136;48.788;9.772;2023-09-12T14:34:22;5.80;;;4.35;;
6205;SDS011;3136;48.788;9.772;2023-09-12T14:36:54;6.35;;;4.50;;
6205;SDS011;3136;48.788;9.772;2023-09-12T14:39:20;4.75;;;3.97;;
6205;SDS011;3136;48.788;9.772;2023-09-12T14:41:47;6.57;;;4.40;;
6205;SDS011;3136;48.788;9.772;2023-09-12T14:44:17;6.50;;;4.82;;
6205;SDS011;3136;48.788;9.772;2023-09-12T14:46:43;6.45;;;4.72;;
6205;SDS011;3136;48.788;9.772;2023-09-12T14:49:09;5.57;;;4.43;;
6205;SDS011;3136;48.788;9.772;2023-09-12T14:51:35;5.13;;;4.20;;
6205;SDS011;3136;48.788;9.772;2023-09-12T14:54:04;7.32;;;4.65;;
6205;SDS011;3136;48.788;9.772;2023-09-12T14:56:31;6.68;;;4.50;;
6205;SDS011;3136;48.788;9.772;2023-09-12T14:58:57;4.80;;;4.30;;
6205;SDS011;3136;48.788;9.772;2023-09-12T15:01:23;7.82;;;4.70;;
6205;SDS011;3136;48.788;9.772;2023-09-12T15:03:49;7.22;;;4.60;;
6205;SDS011;3136;48.788;9.772;2023-09-12T15:06:15;9.48;;;4.95;;
6205;SDS011;3136;48.788;9.772;2023-09-12T15:08:41;6.20;;;4.65;;
6205;SDS011;3136;48.788;9.772;2023-09-12T15:11:06;5.75;;;4.35;;
6205;SDS011;3136;48.788;9.772;2023-09-12T15:13:32;7.13;;;4.55;;
6205;SDS011;3136;48.788;9.772;2023-09-12T15:15:58;8.20;;;5.10;;
6205;SDS011;3136;48.788;9.772;2023-09-12T15:18:23;6.68;;;4.68;;